Time;durP1;ratioP1;P1;durP2;ratioP2;P2;SDS_P1;SDS_P2;PMS_P1;PMS_P2;Temp;Humidity;BMP_temperature;BMP_pressure;BME280_temperature;BME280_humidity;BME280_pressure;Samples;Min_cycle;Max_cycle;Signal;HPM_P1;HPM_P2
2021/04/11 00:01:16;;;;;;;17.13;14.57;;;;;4.50;100370.00;;;;9698343;30;20286;-78
2021/04/11 00:06:17;;;;;;;20.03;15.80;;;;;4.50;100371.00;;;;9670305;30;20203;-78
2021/04/11 00:11:21;;;;;;;21.13;15.63;;;;;4.60;100377.00;;;;9685348;30;20211;-78
2021/04/11 00:16:23;;;;;;;18.63;14.97;;;;;4.50;100359.00;;;;9699115;30;20230;-78
2021/04/11 00:21:24;;;;;;;20.10;12.13;;;;;4.40;100370.00;;;;9674380;30;20271;-79
2021/04/11 00:26:26;;;;;;;12.80;11.03;;;;;4.30;100365.00;;;;9661127;30;20228;-78
2021/04/11 00:31:27;;;;;;;15.80;12.63;;;;;4.20;100362.00;;;;9681179;30;20212;-78
2021/04/11 00:36:28;;;;;;;13.57;10.43;;;;;4.10;100372.00;;;;9695901;30;20231;-79
2021/04/11 00:41:36;;;;;;;13.40;10.43;;;;;4.10;100370.00;;;;9673309;30;20260;-78
2021/04/11 00:46:48;;;;;;;13.27;10.50;;;;;4.10;100367.00;;;;9682110;30;20200;-79
2021/04/11 00:51:52;;;;;;;10.60;8.67;;;;;3.90;100366.00;;;;9678270;30;20211;-78
2021/04/11 00:56:54;;;;;;;10.20;8.33;;;;;3.80;100368.00;;;;9693657;30;20693;-78
2021/04/11 01:01:56;;;;;;;11.77;9.43;;;;;3.80;100383.00;;;;9693526;30;20215;-78
2021/04/11 01:07:01;;;;;;;12.30;9.50;;;;;3.80;100373.00;;;;9705868;30;20303;-78
2021/04/11 01:12:16;;;;;;;9.83;8.17;;;;;3.70;100388.00;;;;9689080;30;20558;-78
2021/04/11 01:17:20;;;;;;;12.27;9.10;;;;;3.70;100367.00;;;;9691955;30;20226;-77
2021/04/11 01:22:51;;;;;;;8.37;7.40;;;;;3.60;100375.00;;;;9690409;30;20266;-77
2021/04/11 01:27:55;;;;;;;10.53;8.77;;;;;3.60;100370.00;;;;9689960;30;20227;-77
2021/04/11 01:32:59;;;;;;;10.23;8.13;;;;;3.60;100381.00;;;;9681720;30;20237;-77
2021/04/11 01:38:05;;;;;;;10.77;8.47;;;;;3.60;100386.00;;;;9685451;30;20227;-77
2021/04/11 01:43:09;;;;;;;6.27;4.83;;;;;3.50;100388.00;;;;9673663;30;20699;-77
2021/04/11 01:48:11;;;;;;;9.03;6.47;;;;;3.40;100394.00;;;;9675370;30;20794;-77
2021/04/11 01:53:14;;;;;;;8.27;6.83;;;;;3.50;100401.00;;;;9660996;30;20234;-77
2021/04/11 01:58:16;;;;;;;8.80;7.03;;;;;3.50;100398.00;;;;9689063;30;20394;-77
2021/04/11 02:03:22;;;;;;;9.53;8.03;;;;;3.50;100407.00;;;;9668671;30;20204;-77
2021/04/11 02:08:25;;;;;;;10.50;8.00;;;;;3.60;100396.00;;;;9655665;30;20212;-77
2021/04/11 02:13:36;;;;;;;10.10;7.83;;;;;3.50;100399.00;;;;9652544;30;20224;-77
2021/04/11 02:18:58;;;;;;;10.10;7.83;;;;;3.50;100411.00;;;;9667352;30;20287;-77
2021/04/11 02:24:04;;;;;;;8.37;7.27;;;;;3.50;100420.00;;;;9701756;30;20564;-77
2021/04/11 02:29:15;;;;;;;8.87;7.37;;;;;3.40;100426.00;;;;9701931;30;20200;-77
2021/04/11 02:34:24;;;;;;;8.00;7.20;;;;;3.50;100430.00;;;;9687759;30;20593;-77
2021/04/11 02:39:30;;;;;;;8.80;7.27;;;;;3.50;100437.00;;;;9686571;30;20210;-77
2021/04/11 02:44:41;;;;;;;8.43;7.03;;;;;3.50;100433.00;;;;9688264;30;20211;-78
2021/04/11 02:49:48;;;;;;;8.33;7.37;;;;;3.40;100434.00;;;;9709986;30;20204;-77
2021/04/11 02:54:50;;;;;;;8.73;7.20;;;;;3.40;100439.00;;;;9667068;30;20228;-77
2021/04/11 02:59:54;;;;;;;9.27;7.43;;;;;3.40;100447.00;;;;9660295;30;20205;-78
2021/04/11 03:04:57;;;;;;;9.40;7.87;;;;;3.50;100453.00;;;;9660434;30;20207;-77
2021/04/11 03:10:07;;;;;;;12.27;8.43;;;;;3.40;100448.00;;;;9666856;30;20203;-77
2021/04/11 03:15:14;;;;;;;9.03;6.53;;;;;3.40;100448.00;;;;9708689;30;20306;-78
2021/04/11 03:20:35;;;;;;;8.73;7.67;;;;;3.40;100461.00;;;;9668224;30;20535;-78
2021/04/11 03:26:01;;;;;;;8.90;6.73;;;;;3.40;100481.00;;;;9695539;30;20298;-78
2021/04/11 03:31:37;;;;;;;6.47;5.83;;;;;3.30;100477.00;;;;9695617;30;20267;-78
2021/04/11 03:36:42;;;;;;;7.40;6.67;;;;;3.30;100474.00;;;;9644672;30;20701;-78
2021/04/11 03:41:47;;;;;;;8.67;7.43;;;;;3.30;100466.00;;;;9678619;30;20677;-78
2021/04/11 03:47:14;;;;;;;8.73;7.23;;;;;3.30;100474.00;;;;9680177;30;20203;-77
2021/04/11 03:52:27;;;;;;;42.57;26.10;;;;;3.30;100488.00;;;;9683400;30;20205;-77
2021/04/11 03:57:48;;;;;;;8.57;6.67;;;;;3.30;100511.00;;;;9660107;30;20286;-78
2021/04/11 04:02:56;;;;;;;7.80;7.00;;;;;3.20;100506.00;;;;9692930;30;20208;-78
2021/04/11 04:08:05;;;;;;;8.30;6.77;;;;;3.30;100512.00;;;;9686495;30;20201;-77
2021/04/11 04:13:10;;;;;;;10.20;8.67;;;;;3.30;100516.00;;;;9643145;30;20670;-77
2021/04/11 04:18:55;;;;;;;9.07;7.10;;;;;3.30;100517.00;;;;9678216;30;20203;-77
2021/04/11 04:24:04;;;;;;;9.53;7.77;;;;;3.40;100526.00;;;;9656744;30;20204;-77
2021/04/11 04:29:37;;;;;;;11.40;9.73;;;;;3.40;100548.00;;;;9656084;30;20209;-77
2021/04/11 04:34:46;;;;;;;12.53;9.50;;;;;3.40;100558.00;;;;9682081;30;20250;-77
2021/04/11 04:39:59;;;;;;;11.33;9.03;;;;;3.40;100542.00;;;;9705771;30;20254;-77
2021/04/11 04:45:23;;;;;;;9.67;7.90;;;;;3.40;100555.00;;;;9669916;30;20315;-77
2021/04/11 04:50:58;;;;;;;8.20;7.17;;;;;3.40;100565.00;;;;9677572;30;20246;-77
2021/04/11 04:56:04;;;;;;;8.93;7.53;;;;;3.40;100556.00;;;;9656696;30;20220;-77
2021/04/11 05:01:17;;;;;;;7.73;6.57;;;;;3.30;100579.00;;;;9652685;30;20255;-77
2021/04/11 05:06:30;;;;;;;8.63;7.03;;;;;3.30;100592.00;;;;9689630;30;20200;-77
2021/04/11 05:11:49;;;;;;;8.40;7.17;;;;;3.30;100603.00;;;;9672976;30;20303;-77
2021/04/11 05:17:01;;;;;;;7.73;6.83;;;;;3.30;100610.00;;;;9657189;30;20693;-77
2021/04/11 05:22:30;;;;;;;7.70;6.47;;;;;3.30;100604.00;;;;9698967;30;20298;-77
2021/04/11 05:27:38;;;;;;;7.73;6.23;;;;;3.40;100623.00;;;;9689187;30;20637;-77
2021/04/11 05:32:41;;;;;;;6.53;5.83;;;;;3.40;100628.00;;;;9654774;30;20258;-77
2021/04/11 05:38:14;;;;;;;6.17;5.43;;;;;3.40;100638.00;;;;9639021;30;20283;-77
2021/04/11 05:43:22;;;;;;;7.13;6.20;;;;;3.40;100650.00;;;;9653348;30;20292;-77
2021/04/11 05:48:35;;;;;;;5.03;4.53;;;;;3.50;100651.00;;;;9667823;30;20208;-77
2021/04/11 05:53:53;;;;;;;8.23;5.10;;;;;3.50;100655.00;;;;9667167;30;20208;-77
2021/04/11 05:59:03;;;;;;;6.13;5.53;;;;;3.50;100672.00;;;;9653694;30;20618;-77
2021/04/11 06:04:08;;;;;;;6.33;5.00;;;;;3.60;100666.00;;;;9669163;30;20196;-77
2021/04/11 06:09:38;;;;;;;6.43;5.50;;;;;3.60;100675.00;;;;9656847;30;20208;-77
2021/04/11 06:15:18;;;;;;;7.40;5.43;;;;;3.60;100691.00;;;;9650303;30;20256;-77
2021/04/11 06:20:21;;;;;;;6.33;5.10;;;;;3.60;100700.00;;;;9646200;30;20271;-77
2021/04/11 06:25:40;;;;;;;6.20;5.53;;;;;3.70;100727.00;;;;9660235;30;20231;-77
2021/04/11 06:30:53;;;;;;;8.07;5.80;;;;;3.80;100733.00;;;;9696406;30;20234;-77
2021/04/11 06:36:09;;;;;;;7.03;6.33;;;;;3.90;100727.00;;;;9680590;30;20255;-77
2021/04/11 06:41:38;;;;;;;6.77;5.67;;;;;4.00;100721.00;;;;9694562;30;20207;-77
2021/04/11 06:47:05;;;;;;;5.87;5.27;;;;;4.10;100731.00;;;;9708975;30;20258;-77
2021/04/11 06:52:25;;;;;;;6.53;5.83;;;;;4.20;100751.00;;;;9651925;30;20204;-77
2021/04/11 06:57:32;;;;;;;5.33;4.57;;;;;4.40;100761.00;;;;9679861;30;20230;-77
2021/04/11 07:03:08;;;;;;;7.07;4.77;;;;;4.60;100764.00;;;;9693621;30;20204;-77
2021/04/11 07:08:30;;;;;;;6.13;4.77;;;;;4.80;100776.00;;;;9680340;30;20251;-77
2021/04/11 07:13:50;;;;;;;5.07;4.57;;;;;4.90;100771.00;;;;9688588;30;20669;-77
2021/04/11 07:19:12;;;;;;;5.73;4.13;;;;;5.20;100786.00;;;;9694042;30;20207;-77
2021/04/11 07:24:39;;;;;;;5.17;4.40;;;;;5.30;100781.00;;;;9664874;30;20211;-77
2021/04/11 07:29:55;;;;;;;6.40;4.60;;;;;5.40;100802.00;;;;9678956;30;20203;-77
2021/04/11 07:35:21;;;;;;;4.67;4.17;;;;;5.10;100798.00;;;;9678758;30;20228;-77
2021/04/11 07:40:42;;;;;;;6.60;4.80;;;;;5.00;100804.00;;;;9657113;30;20208;-77
2021/04/11 07:45:52;;;;;;;4.90;4.40;;;;;5.00;100813.00;;;;9675014;30;20628;-76
2021/04/11 07:51:03;;;;;;;5.57;4.47;;;;;5.20;100827.00;;;;9692991;30;20208;-77
2021/04/11 07:56:19;;;;;;;5.20;4.27;;;;;5.40;100826.00;;;;9707053;30;20224;-77
2021/04/11 08:01:43;;;;;;;4.03;3.63;;;;;5.70;100836.00;;;;9685473;30;20212;-77
2021/04/11 08:06:53;;;;;;;4.87;3.30;;;;;6.40;100852.00;;;;9664290;30;20203;-77
2021/04/11 08:12:32;;;;;;;5.97;2.90;;;;;6.80;100869.00;;;;9668085;30;20267;-77
2021/04/11 08:17:55;;;;;;;2.27;1.97;;;;;7.10;100845.00;;;;9685283;30;20220;-77
2021/04/11 08:23:15;;;;;;;5.77;2.77;;;;;7.20;100844.00;;;;9676561;30;20204;-77
2021/04/11 08:28:38;;;;;;;5.40;2.73;;;;;7.30;100862.00;;;;9672398;30;20215;-77
2021/04/11 08:33:42;;;;;;;4.23;2.33;;;;;7.30;100870.00;;;;9692169;30;20215;-77
2021/04/11 08:39:12;;;;;;;4.17;1.90;;;;;7.30;100870.00;;;;9685842;30;20523;-78
2021/04/11 08:44:40;;;;;;;4.03;1.87;;;;;7.80;100878.00;;;;9659615;30;20207;-77
2021/04/11 08:49:46;;;;;;;4.87;1.93;;;;;7.90;100886.00;;;;9670624;30;20207;-77
2021/04/11 08:54:50;;;;;;;3.70;1.73;;;;;7.10;100886.00;;;;9682422;30;20216;-77
2021/04/11 09:00:14;;;;;;;3.23;1.97;;;;;7.00;100898.00;;;;9670721;30;20303;-78
2021/04/11 09:05:31;;;;;;;2.70;1.83;;;;;6.80;100878.00;;;;9665560;30;20219;-78
2021/04/11 09:10:53;;;;;;;3.43;1.50;;;;;6.80;100888.00;;;;9705297;30;20210;-78
2021/04/11 09:16:07;;;;;;;3.77;1.80;;;;;7.00;100902.00;;;;9692099;30;20216;-78
2021/04/11 09:21:14;;;;;;;2.03;1.60;;;;;7.60;100902.00;;;;9656438;30;20255;-78
2021/04/11 09:27:05;;;;;;;4.53;1.80;;;;;7.90;100917.00;;;;9659403;30;20223;-78
2021/04/11 09:32:26;;;;;;;5.00;1.80;;;;;7.90;100922.00;;;;9707110;30;20258;-78
2021/04/11 09:37:49;;;;;;;3.20;1.30;;;;;8.10;100928.00;;;;9666310;30;20648;-78
2021/04/11 09:43:18;;;;;;;1.30;1.17;;;;;8.70;100926.00;;;;9692764;30;20208;-78
2021/04/11 09:48:57;;;;;;;3.30;1.03;;;;;9.30;100930.00;;;;9675166;30;20662;-78
2021/04/11 09:54:09;;;;;;;2.17;1.23;;;;;9.60;100929.00;;;;9664937;30;20551;-78
2021/04/11 09:59:22;;;;;;;4.97;1.50;;;;;9.90;100925.00;;;;9683692;30;20211;-78
2021/04/11 10:04:37;;;;;;;4.10;1.60;;;;;9.80;100926.00;;;;9691669;30;20210;-78
2021/04/11 10:10:02;;;;;;;3.60;1.70;;;;;9.60;100942.00;;;;9686743;30;20224;-78
2021/04/11 10:15:03;;;;;;;3.20;1.63;;;;;9.60;100942.00;;;;9671261;30;20305;-78
2021/04/11 10:20:26;;;;;;;6.50;1.90;;;;;9.40;100947.00;;;;9691531;30;20301;-78
2021/04/11 10:25:36;;;;;;;2.63;1.40;;;;;9.70;100936.00;;;;9665383;30;20275;-78
2021/04/11 10:30:39;;;;;;;1.67;1.40;;;;;10.50;100932.00;;;;9683755;30;20205;-78
2021/04/11 10:35:43;;;;;;;4.67;1.30;;;;;11.00;100934.00;;;;9646312;30;20224;-78
2021/04/11 10:41:01;;;;;;;4.30;1.40;;;;;11.00;100949.00;;;;9681295;30;20629;-78
2021/04/11 10:46:21;;;;;;;2.80;1.30;;;;;10.00;100960.00;;;;9643945;30;20685;-78
2021/04/11 10:51:41;;;;;;;2.53;1.30;;;;;9.80;100954.00;;;;9679921;30;20243;-78
2021/04/11 10:57:07;;;;;;;3.27;1.40;;;;;9.00;100958.00;;;;9672990;30;20236;-78
2021/04/11 11:02:42;;;;;;;2.53;1.23;;;;;8.20;100970.00;;;;9672242;30;20583;-78
2021/04/11 11:08:18;;;;;;;4.27;1.30;;;;;7.70;100978.00;;;;9685780;30;20211;-78
2021/04/11 11:13:36;;;;;;;3.47;1.50;;;;;7.30;100990.00;;;;9658635;30;20208;-78
2021/04/11 11:18:53;;;;;;;6.00;1.40;;;;;7.10;100987.00;;;;9654013;30;20798;-77
2021/04/11 11:24:12;;;;;;;2.47;1.40;;;;;6.90;100987.00;;;;9658894;30;20215;-78
2021/04/11 11:29:42;;;;;;;4.40;1.80;;;;;7.10;101002.00;;;;9630317;30;20287;-78
2021/04/11 11:35:01;;;;;;;3.53;1.90;;;;;7.40;101002.00;;;;9691033;30;20255;-77
2021/04/11 11:40:16;;;;;;;3.83;1.90;;;;;8.10;100995.00;;;;9689681;30;20207;-76
2021/04/11 11:45:28;;;;;;;4.07;2.07;;;;;9.20;100994.00;;;;9683115;30;20204;-76
2021/04/11 11:50:34;;;;;;;4.10;1.60;;;;;9.60;100998.00;;;;9692145;30;20245;-76
2021/04/11 11:55:40;;;;;;;4.63;2.30;;;;;9.50;101009.00;;;;9676734;30;20310;-77
2021/04/11 12:00:46;;;;;;;4.03;2.00;;;;;9.50;101009.00;;;;9683224;30;20212;-77
2021/04/11 12:05:58;;;;;;;3.20;2.20;;;;;10.80;101012.00;;;;9673873;30;20199;-77
2021/04/11 12:11:15;;;;;;;2.60;1.30;;;;;10.90;101006.00;;;;9673088;30;20289;-77
2021/04/11 12:16:35;;;;;;;5.60;2.47;;;;;11.70;101012.00;;;;9671726;30;20275;-78
2021/04/11 12:21:46;;;;;;;5.50;1.97;;;;;11.70;101017.00;;;;9673783;30;20215;-78
2021/04/11 12:26:59;;;;;;;7.47;1.40;;;;;11.30;101019.00;;;;9662497;30;20220;-78
2021/04/11 12:32:21;;;;;;;2.00;1.10;;;;;12.00;101010.00;;;;9655490;30;20290;-77
2021/04/11 12:37:46;;;;;;;2.87;1.30;;;;;13.10;101020.00;;;;9675229;30;20232;-77
2021/04/11 12:43:06;;;;;;;1.97;1.20;;;;;13.30;101025.00;;;;9665516;30;20677;-76
2021/04/11 12:48:41;;;;;;;3.63;1.13;;;;;12.90;101035.00;;;;9674369;30;20222;-76
2021/04/11 12:54:15;;;;;;;4.63;1.60;;;;;12.20;101045.00;;;;9668609;30;20215;-77
2021/04/11 12:59:18;;;;;;;4.80;1.27;;;;;11.60;101035.00;;;;9679915;30;20204;-76
2021/04/11 13:04:34;;;;;;;3.80;1.20;;;;;13.10;101040.00;;;;9654248;30;20209;-76
2021/04/11 13:10:15;;;;;;;1.93;1.10;;;;;12.10;101045.00;;;;9702849;30;20291;-78
2021/04/11 13:15:28;;;;;;;2.97;1.20;;;;;9.90;101055.00;;;;9644125;30;20220;-77
2021/04/11 13:20:42;;;;;;;4.53;2.17;;;;;9.00;101056.00;;;;9667370;30;20211;-78
2021/04/11 13:26:02;;;;;;;2.37;0.90;;;;;8.80;101062.00;;;;9698587;30;20213;-78
2021/04/11 13:31:21;;;;;;;3.00;1.43;;;;;9.50;101072.00;;;;9663945;30;20271;-78
2021/04/11 13:36:24;;;;;;;6.43;1.37;;;;;10.10;101069.00;;;;9686751;30;20342;-77
2021/04/11 13:41:35;;;;;;;2.80;1.20;;;;;9.80;101071.00;;;;9692477;30;20266;-78
2021/04/11 13:46:51;;;;;;;6.83;1.40;;;;;9.10;101081.00;;;;9700524;30;20210;-78
2021/04/11 13:52:04;;;;;;;4.73;1.10;;;;;9.30;101094.00;;;;9695461;30;20238;-78
2021/04/11 13:57:11;;;;;;;3.73;1.67;;;;;10.10;101089.00;;;;9677288;30;20272;-78
2021/04/11 14:02:21;;;;;;;5.23;1.40;;;;;11.40;101076.00;;;;9696748;30;20222;-78
2021/04/11 14:07:33;;;;;;;2.50;1.33;;;;;10.80;101089.00;;;;9647861;30;20213;-78
2021/04/11 14:13:04;;;;;;;4.23;1.30;;;;;10.70;101079.00;;;;9704815;30;20197;-77
2021/04/11 14:18:28;;;;;;;3.47;1.53;;;;;13.20;101086.00;;;;9635204;30;20258;-78
2021/04/11 14:24:09;;;;;;;2.60;1.50;;;;;11.20;101094.00;;;;9661361;30;20650;-77
2021/04/11 14:29:34;;;;;;;2.20;1.37;;;;;10.30;101091.00;;;;9678842;30;20207;-77
2021/04/11 14:34:53;;;;;;;4.73;1.37;;;;;9.70;101110.00;;;;9653347;30;20871;-77
2021/04/11 14:40:03;;;;;;;4.07;1.73;;;;;9.80;101105.00;;;;9677208;30;20318;-78
2021/04/11 14:45:05;;;;;;;4.73;1.80;;;;;9.60;101114.00;;;;9689573;30;20203;-77
2021/04/11 14:50:23;;;;;;;5.07;1.70;;;;;9.70;101125.00;;;;9676800;30;20230;-78
2021/04/11 14:55:48;;;;;;;3.87;1.50;;;;;9.60;101132.00;;;;9669476;30;20225;-77
2021/04/11 15:01:02;;;;;;;3.03;1.30;;;;;11.00;101133.00;;;;9696447;30;20203;-78
2021/04/11 15:06:11;;;;;;;2.83;1.60;;;;;15.60;101117.00;;;;9698100;30;20208;-78
2021/04/11 15:11:16;;;;;;;4.87;1.83;;;;;17.00;101095.00;;;;9695627;30;20697;-77
2021/04/11 15:16:31;;;;;;;2.57;1.33;;;;;17.70;101113.00;;;;9689882;30;20227;-77
2021/04/11 15:21:54;;;;;;;2.43;1.10;;;;;13.80;101136.00;;;;9668782;30;20240;-78
2021/04/11 15:27:04;;;;;;;2.93;1.30;;;;;11.90;101129.00;;;;9669223;30;20235;-77
2021/04/11 15:32:16;;;;;;;3.60;1.00;;;;;10.30;101153.00;;;;9671703;30;20235;-77
2021/04/11 15:37:39;;;;;;;2.10;1.10;;;;;9.30;101149.00;;;;9674690;30;20228;-77
2021/04/11 15:42:44;;;;;;;3.87;1.40;;;;;9.20;101166.00;;;;9682030;30;20204;-77
2021/04/11 15:48:20;;;;;;;6.57;4.63;;;;;10.90;101148.00;;;;9666195;30;20295;-77
2021/04/11 15:53:56;;;;;;;1.73;1.00;;;;;10.80;101155.00;;;;9684676;30;20212;-78
2021/04/11 15:59:10;;;;;;;2.77;1.40;;;;;10.60;101163.00;;;;9689153;30;20305;-76
2021/04/11 16:04:23;;;;;;;3.47;1.37;;;;;11.00;101182.00;;;;9650778;30;20307;-77
2021/04/11 16:09:36;;;;;;;6.00;3.20;;;;;10.70;101180.00;;;;9686398;30;20204;-76
2021/04/11 16:14:53;;;;;;;4.13;1.50;;;;;11.30;101183.00;;;;9690987;30;20219;-76
2021/04/11 16:20:07;;;;;;;4.60;1.70;;;;;10.60;101208.00;;;;9691408;30;20261;-77
2021/04/11 16:25:08;;;;;;;2.93;1.10;;;;;11.00;101203.00;;;;9691229;30;20220;-76
2021/04/11 16:30:47;;;;;;;8.57;2.17;;;;;10.50;101212.00;;;;9690924;30;20230;-77
2021/04/11 16:36:25;;;;;;;4.03;1.20;;;;;10.10;101222.00;;;;9708376;30;20228;-78
2021/04/11 16:41:42;;;;;;;2.17;1.10;;;;;9.80;101228.00;;;;9672056;30;20208;-77
2021/04/11 16:47:08;;;;;;;3.53;1.10;;;;;9.40;101230.00;;;;9672448;30;20234;-77
2021/04/11 16:52:23;;;;;;;4.63;1.63;;;;;8.90;101252.00;;;;9675233;30;20664;-77
2021/04/11 16:57:46;;;;;;;2.23;0.70;;;;;8.40;101253.00;;;;9694755;30;20584;-77
2021/04/11 17:03:07;;;;;;;4.33;1.63;;;;;8.00;101257.00;;;;9693151;30;20609;-77
2021/04/11 17:08:18;;;;;;;0.97;0.87;;;;;7.90;101267.00;;;;9692415;30;20638;-78
2021/04/11 17:13:40;;;;;;;6.27;1.37;;;;;7.80;101290.00;;;;9707270;30;20212;-77
2021/04/11 17:18:57;;;;;;;3.37;0.90;;;;;7.70;101286.00;;;;9678681;30;20224;-77
2021/04/11 17:24:06;;;;;;;1.90;1.20;;;;;7.60;101298.00;;;;9692098;30;20259;-77
2021/04/11 17:29:16;;;;;;;4.13;1.10;;;;;7.40;101307.00;;;;9678018;30;20200;-78
2021/04/11 17:34:24;;;;;;;5.10;1.20;;;;;7.20;101306.00;;;;9692015;30;20246;-77
2021/04/11 17:39:28;;;;;;;2.90;0.80;;;;;7.00;101317.00;;;;9692183;30;20211;-77
2021/04/11 17:45:00;;;;;;;3.17;0.90;;;;;6.90;101336.00;;;;9691996;30;20212;-77
2021/04/11 17:50:13;;;;;;;2.73;0.80;;;;;6.70;101337.00;;;;9691237;30;20215;-78
2021/04/11 17:55:35;;;;;;;1.93;1.30;;;;;6.50;101358.00;;;;9678285;30;20224;-77
2021/04/11 18:01:02;;;;;;;1.60;1.30;;;;;6.40;101369.00;;;;9662405;30;20202;-77
2021/04/11 18:06:18;;;;;;;2.03;1.13;;;;;6.10;101383.00;;;;9662055;30;20262;-77
2021/04/11 18:11:51;;;;;;;2.80;1.20;;;;;5.90;101383.00;;;;9676309;30;20266;-77
2021/04/11 18:17:17;;;;;;;2.60;1.20;;;;;5.70;101398.00;;;;9665247;30;20227;-77
2021/04/11 18:22:46;;;;;;;3.07;1.20;;;;;5.50;101405.00;;;;9698049;30;20211;-77
2021/04/11 18:28:01;;;;;;;4.47;1.20;;;;;5.30;101424.00;;;;9668544;30;20223;-77
2021/04/11 18:33:05;;;;;;;1.07;0.80;;;;;5.10;101441.00;;;;9682180;30;20216;-77
2021/04/11 18:38:19;;;;;;;4.93;1.33;;;;;5.00;101450.00;;;;9682360;30;20226;-77
2021/04/11 18:43:32;;;;;;;3.33;1.20;;;;;4.90;101460.00;;;;9682481;30;20665;-77
2021/04/11 18:49:27;;;;;;;4.17;1.80;;;;;4.70;101473.00;;;;9710541;30;20204;-77
2021/04/11 18:54:41;;;;;;;5.03;1.73;;;;;4.50;101483.00;;;;9696558;30;20211;-77
2021/04/11 18:59:58;;;;;;;3.57;1.50;;;;;4.40;101488.00;;;;9697711;30;20222;-77
2021/04/11 19:05:28;;;;;;;6.30;2.30;;;;;4.30;101504.00;;;;9695675;30;20723;-77
2021/04/11 19:11:01;;;;;;;2.87;1.20;;;;;4.20;101513.00;;;;9708631;30;20215;-77
2021/04/11 19:16:05;;;;;;;4.70;1.77;;;;;4.10;101512.00;;;;9709004;30;20243;-77
2021/04/11 19:21:31;;;;;;;5.40;2.13;;;;;4.00;101529.00;;;;9679325;30;20211;-77
2021/04/11 19:27:05;;;;;;;5.87;2.33;;;;;3.90;101529.00;;;;9694295;30;20220;-77
2021/04/11 19:32:18;;;;;;;5.73;1.97;;;;;3.80;101549.00;;;;9679843;30;20211;-77
2021/04/11 19:37:35;;;;;;;5.53;2.50;;;;;3.70;101552.00;;;;9694101;30;20232;-77
2021/04/11 19:42:40;;;;;;;5.47;2.40;;;;;3.50;101564.00;;;;9693448;30;20641;-77
2021/04/11 19:48:29;;;;;;;6.77;2.13;;;;;3.40;101570.00;;;;9694071;30;20204;-77
2021/04/11 19:54:01;;;;;;;4.43;1.90;;;;;3.30;101580.00;;;;9689463;30;20211;-77
2021/04/11 19:59:22;;;;;;;2.90;1.60;;;;;3.20;101582.00;;;;9708161;30;20223;-77
2021/04/11 20:04:38;;;;;;;4.17;2.03;;;;;3.10;101596.00;;;;9665098;30;20219;-77
2021/04/11 20:09:56;;;;;;;5.57;1.80;;;;;3.00;101596.00;;;;9643871;30;20226;-77
2021/04/11 20:15:17;;;;;;;4.37;1.60;;;;;3.00;101607.00;;;;9659039;30;20224;-77
2021/04/11 20:20:42;;;;;;;4.73;1.67;;;;;3.00;101620.00;;;;9658114;30;20255;-77
2021/04/11 20:26:17;;;;;;;4.20;1.83;;;;;2.90;101621.00;;;;9644236;30;20232;-77
2021/04/11 20:31:52;;;;;;;4.13;1.30;;;;;2.80;101634.00;;;;9644926;30;20204;-77
2021/04/11 20:37:20;;;;;;;3.60;1.57;;;;;2.90;101638.00;;;;9656866;30;20232;-77
2021/04/11 20:42:53;;;;;;;2.03;1.23;;;;;2.80;101644.00;;;;10443009;25;21054;-77
2021/04/11 20:48:24;;;;;;;2.53;1.57;;;;;2.70;101648.00;;;;9678353;30;20207;-77
2021/04/11 20:53:52;;;;;;;3.87;1.60;;;;;2.60;101659.00;;;;9663705;30;20754;-77
2021/04/11 20:59:37;;;;;;;8.57;2.03;;;;;2.50;101669.00;;;;9707204;30;20277;-77
2021/04/11 21:04:53;;;;;;;4.30;2.17;;;;;2.50;101672.00;;;;10537460;27;21056;-78
2021/04/11 21:10:21;;;;;;;4.10;2.37;;;;;2.50;101673.00;;;;10519483;28;20563;-78
2021/04/11 21:15:31;;;;;;;5.03;2.73;;;;;2.40;101676.00;;;;10519099;28;20193;-78
2021/04/11 21:20:59;;;;;;;3.03;2.40;;;;;2.20;101679.00;;;;10534654;28;20216;-78
2021/04/11 21:26:06;;;;;;;3.33;2.40;;;;;2.20;101687.00;;;;10536017;28;20193;-78
2021/04/11 21:31:33;;;;;;;7.57;3.17;;;;;2.10;101698.00;;;;10536135;28;20697;-78
2021/04/11 21:36:42;;;;;;;3.47;2.47;;;;;2.00;101703.00;;;;10534766;28;20193;-78
2021/04/11 21:42:09;;;;;;;4.70;2.70;;;;;2.00;101708.00;;;;10534950;28;20213;-78
2021/04/11 21:47:36;;;;;;;8.83;2.60;;;;;1.80;101722.00;;;;10476799;28;20190;-78
2021/04/11 21:52:41;;;;;;;7.03;3.03;;;;;1.70;101718.00;;;;10475936;28;20549;-77
2021/04/11 21:58:32;;;;;;;6.90;3.67;;;;;1.60;101733.00;;;;10476050;28;20556;-78
2021/04/11 22:03:46;;;;;;;7.10;4.23;;;;;1.50;101732.00;;;;10493237;28;20205;-78
2021/04/11 22:09:23;;;;;;;4.93;3.57;;;;;1.50;101740.00;;;;10509298;28;20198;-78
2021/04/11 22:14:56;;;;;;;5.37;3.60;;;;;1.50;101746.00;;;;10456748;28;20187;-78
2021/04/11 22:20:36;;;;;;;6.97;3.70;;;;;1.60;101752.00;;;;10448017;28;20195;-78
2021/04/11 22:25:40;;;;;;;5.13;2.80;;;;;1.60;101766.00;;;;10446298;28;20205;-78
2021/04/11 22:30:43;;;;;;;4.80;2.57;;;;;1.50;101770.00;;;;10446922;28;20197;-78
2021/04/11 22:36:00;;;;;;;5.43;2.90;;;;;1.40;101775.00;;;;10480633;28;20197;-78
2021/04/11 22:41:13;;;;;;;6.47;3.07;;;;;1.40;101784.00;;;;10446909;28;20214;-78
2021/04/11 22:46:23;;;;;;;5.20;3.00;;;;;1.40;101782.00;;;;10462697;28;20214;-78
2021/04/11 22:52:03;;;;;;;7.30;3.50;;;;;1.30;101790.00;;;;10462858;28;20289;-78
2021/04/11 22:57:34;;;;;;;6.30;4.03;;;;;1.20;101795.00;;;;10425772;28;20692;-78
2021/04/11 23:02:41;;;;;;;7.03;4.10;;;;;1.20;101808.00;;;;10461945;28;20271;-78
2021/04/11 23:07:49;;;;;;;7.27;3.47;;;;;1.10;101807.00;;;;10463610;28;20198;-78
2021/04/11 23:13:12;;;;;;;5.53;3.27;;;;;1.10;101814.00;;;;10445472;28;20194;-78
2021/04/11 23:18:31;;;;;;;6.77;3.90;;;;;1.20;101820.00;;;;10497052;28;20244;-78
2021/04/11 23:23:49;;;;;;;5.60;4.17;;;;;1.10;101829.00;;;;10428877;28;20214;-78
2021/04/11 23:29:06;;;;;;;7.30;3.57;;;;;1.10;101836.00;;;;10462221;28;20636;-78
2021/04/11 23:34:30;;;;;;;7.37;4.00;;;;;0.90;101843.00;;;;10447529;28;20272;-78
2021/04/11 23:39:45;;;;;;;5.57;3.63;;;;;0.80;101844.00;;;;10446136;28;20229;-78
2021/04/11 23:44:58;;;;;;;7.77;3.70;;;;;0.90;101849.00;;;;10445220;28;20228;-78
2021/04/11 23:50:11;;;;;;;5.40;3.77;;;;;0.90;101852.00;;;;10444967;28;20198;-78
2021/04/11 23:55:22;;;;;;;4.03;3.40;;;;;0.90;101850.00;;;;10445892;28;20201;-78
